Time;durP1;ratioP1;P1;durP2;ratioP2;P2;SDS_P1;SDS_P2;PMS_P1;PMS_P2;Temp;Humidity;BMP_temperature;BMP_pressure;BME280_temperature;BME280_humidity;BME280_pressure;Samples;Min_cycle;Max_cycle;Signal;HPM_P1;HPM_P2
2023/02/11 00:02:28;;;;;;;42.78;24.25;;;;;;;;;;5030308;28;20592;-68
2023/02/11 00:04:56;;;;;;;38.65;22.85;;;;;;;;;;5031781;28;20552;-68
2023/02/11 00:07:24;;;;;;;38.08;22.23;;;;;;;;;;5031893;28;20221;-68
2023/02/11 00:09:53;;;;;;;35.40;21.70;;;;;;;;;;5045671;28;20208;-68
2023/02/11 00:12:21;;;;;;;36.53;23.10;;;;;;;;;;5051890;28;20208;-68
2023/02/11 00:14:49;;;;;;;44.53;26.02;;;;;;;;;;5045417;28;20200;-68
2023/02/11 00:17:18;;;;;;;45.45;24.90;;;;;;;;;;5042749;28;20203;-68
2023/02/11 00:19:49;;;;;;;42.67;24.33;;;;;;;;;;5032017;28;20213;-68
2023/02/11 00:22:17;;;;;;;38.28;22.27;;;;;;;;;;5041070;28;20189;-71
2023/02/11 00:24:46;;;;;;;44.35;25.85;;;;;;;;;;5051648;28;20273;-68
2023/02/11 00:27:14;;;;;;;38.05;21.48;;;;;;;;;;5051127;28;20296;-68
2023/02/11 00:29:42;;;;;;;42.95;25.13;;;;;;;;;;5052519;28;20205;-68
2023/02/11 00:32:11;;;;;;;40.88;24.23;;;;;;;;;;5048454;28;20204;-68
2023/02/11 00:34:39;;;;;;;40.75;22.88;;;;;;;;;;5042890;28;20270;-68
2023/02/11 00:37:10;;;;;;;39.25;23.25;;;;;;;;;;5049513;28;20225;-68
2023/02/11 00:39:39;;;;;;;34.47;22.10;;;;;;;;;;5045398;28;20198;-68
2023/02/11 00:42:07;;;;;;;36.47;22.95;;;;;;;;;;5037849;28;20208;-68
2023/02/11 00:44:35;;;;;;;43.40;24.45;;;;;;;;;;5055083;28;20197;-68
2023/02/11 00:47:03;;;;;;;37.38;23.95;;;;;;;;;;5045267;28;20221;-68
2023/02/11 00:49:32;;;;;;;44.17;24.92;;;;;;;;;;5042302;28;20300;-67
2023/02/11 00:52:00;;;;;;;38.50;24.70;;;;;;;;;;5054930;28;20209;-66
2023/02/11 00:54:29;;;;;;;38.85;23.95;;;;;;;;;;5044063;28;20280;-66
2023/02/11 00:56:57;;;;;;;41.13;22.52;;;;;;;;;;5035007;28;20223;-66
2023/02/11 00:59:26;;;;;;;40.88;24.40;;;;;;;;;;5033258;28;20676;-66
2023/02/11 01:01:54;;;;;;;47.90;25.17;;;;;;;;;;5033945;28;20205;-68
2023/02/11 01:04:22;;;;;;;50.10;25.77;;;;;;;;;;5034264;28;20577;-67
2023/02/11 01:06:53;;;;;;;40.63;24.90;;;;;;;;;;5046517;28;20223;-66
2023/02/11 01:09:21;;;;;;;43.75;23.65;;;;;;;;;;5054603;28;20231;-66
2023/02/11 01:11:51;;;;;;;43.03;25.55;;;;;;;;;;5053089;28;20211;-66
2023/02/11 01:14:19;;;;;;;54.75;28.83;;;;;;;;;;5054401;28;20211;-66
2023/02/11 01:16:47;;;;;;;47.40;26.88;;;;;;;;;;5054328;28;20569;-67
2023/02/11 01:19:15;;;;;;;44.75;26.33;;;;;;;;;;5054532;28;20208;-66
2023/02/11 01:21:45;;;;;;;42.15;25.05;;;;;;;;;;5053455;28;20546;-68
2023/02/11 01:24:14;;;;;;;46.72;26.60;;;;;;;;;;5055118;28;20221;-67
2023/02/11 01:26:44;;;;;;;48.70;26.60;;;;;;;;;;5054602;28;20208;-67
2023/02/11 01:29:14;;;;;;;48.88;26.65;;;;;;;;;;5053918;28;20204;-67
2023/02/11 01:31:42;;;;;;;50.42;28.50;;;;;;;;;;5054630;28;20201;-67
2023/02/11 01:34:10;;;;;;;45.92;27.25;;;;;;;;;;5054410;28;20203;-67
2023/02/11 01:36:38;;;;;;;57.10;29.20;;;;;;;;;;5054523;28;20581;-67
2023/02/11 01:39:07;;;;;;;53.10;28.65;;;;;;;;;;5049798;28;20209;-67
2023/02/11 01:41:36;;;;;;;47.03;26.38;;;;;;;;;;5034296;28;20575;-67
2023/02/11 01:44:25;;;;;;;45.30;25.05;;;;;;;;;;5051083;28;20197;-67
2023/02/11 01:46:53;;;;;;;46.70;26.92;;;;;;;;;;5045890;28;20703;-67
2023/02/11 01:49:23;;;;;;;43.38;25.23;;;;;;;;;;5034792;28;20632;-67
2023/02/11 01:51:53;;;;;;;44.92;24.90;;;;;;;;;;5048687;28;20208;-67
2023/02/11 01:57:27;;;;;;;43.55;24.50;;;;;;;;;;5054799;28;20184;-67
2023/02/11 02:00:10;;;;;;;47.92;27.20;;;;;;;;;;5053266;28;20200;-67
2023/02/11 02:02:48;;;;;;;45.28;25.85;;;;;;;;;;5068510;28;20201;-66
2023/02/11 02:05:20;;;;;;;50.20;28.20;;;;;;;;;;5054534;28;20196;-67
2023/02/11 02:07:53;;;;;;;47.67;27.02;;;;;;;;;;5041816;28;20218;-67
2023/02/11 02:10:23;;;;;;;46.15;27.40;;;;;;;;;;5034304;28;20196;-67
2023/02/11 02:12:51;;;;;;;45.70;27.05;;;;;;;;;;5034770;28;20247;-67
2023/02/11 02:15:26;;;;;;;46.55;26.95;;;;;;;;;;5035393;28;20205;-67
2023/02/11 02:18:21;;;;;;;43.40;27.30;;;;;;;;;;5033918;28;20549;-67
2023/02/11 02:20:57;;;;;;;48.47;26.85;;;;;;;;;;5053009;28;20204;-70
2023/02/11 02:23:29;;;;;;;51.63;27.55;;;;;;;;;;5053495;28;20295;-67
2023/02/11 02:26:15;;;;;;;43.75;26.75;;;;;;;;;;5053845;28;20193;-67
2023/02/11 02:29:02;;;;;;;45.53;25.67;;;;;;;;;;5043786;28;20231;-67
2023/02/11 02:31:39;;;;;;;50.17;28.65;;;;;;;;;;5052789;28;20223;-67
2023/02/11 02:34:11;;;;;;;48.28;26.80;;;;;;;;;;5053553;28;20193;-66
2023/02/11 02:36:43;;;;;;;51.35;27.73;;;;;;;;;;5053014;28;20236;-67
2023/02/11 02:39:12;;;;;;;51.15;27.10;;;;;;;;;;5052079;28;20189;-67
2023/02/11 02:41:42;;;;;;;54.67;29.80;;;;;;;;;;5052707;28;20205;-67
2023/02/11 02:44:10;;;;;;;47.53;28.55;;;;;;;;;;5053307;28;20203;-67
2023/02/11 02:46:38;;;;;;;49.22;28.52;;;;;;;;;;5052573;28;20210;-67
2023/02/11 02:49:12;;;;;;;53.30;31.17;;;;;;;;;;5052932;28;20231;-67
2023/02/11 02:51:51;;;;;;;53.42;29.40;;;;;;;;;;5052526;28;20627;-67
2023/02/11 02:54:47;;;;;;;50.47;31.63;;;;;;;;;;5052799;28;20188;-67
2023/02/11 02:57:22;;;;;;;58.42;30.00;;;;;;;;;;5053521;28;20207;-67
2023/02/11 02:59:58;;;;;;;53.65;30.05;;;;;;;;;;5052695;28;20184;-67
2023/02/11 03:02:29;;;;;;;50.30;29.20;;;;;;;;;;5050379;28;20202;-67
2023/02/11 03:05:04;;;;;;;56.50;30.40;;;;;;;;;;5046703;28;20215;-67
2023/02/11 03:07:37;;;;;;;54.75;29.48;;;;;;;;;;5040416;28;20211;-67
2023/02/11 03:10:08;;;;;;;53.90;29.38;;;;;;;;;;5039585;28;20571;-66
2023/02/11 03:12:38;;;;;;;50.58;30.75;;;;;;;;;;5052444;28;20204;-67
2023/02/11 03:15:07;;;;;;;57.00;32.28;;;;;;;;;;5041388;28;20212;-67
2023/02/11 03:17:36;;;;;;;47.03;29.45;;;;;;;;;;5039734;28;20557;-67
2023/02/11 03:20:07;;;;;;;48.20;28.92;;;;;;;;;;5044897;28;20205;-67
2023/02/11 03:22:39;;;;;;;48.75;29.40;;;;;;;;;;5034529;28;20224;-66
2023/02/11 03:25:07;;;;;;;54.75;30.20;;;;;;;;;;5049697;28;20262;-67
2023/02/11 03:27:42;;;;;;;51.55;27.98;;;;;;;;;;5051257;28;20196;-67
2023/02/11 03:30:13;;;;;;;49.33;27.33;;;;;;;;;;5052212;28;20196;-67
2023/02/11 03:32:44;;;;;;;54.67;30.35;;;;;;;;;;5052147;28;20201;-67
2023/02/11 03:35:16;;;;;;;52.05;28.38;;;;;;;;;;5052524;28;20215;-66
2023/02/11 03:37:46;;;;;;;48.88;26.83;;;;;;;;;;5035296;28;20605;-67
2023/02/11 03:40:16;;;;;;;49.38;27.98;;;;;;;;;;5036141;28;20648;-66
2023/02/11 03:42:46;;;;;;;45.08;25.75;;;;;;;;;;5033175;28;20223;-66
2023/02/11 03:45:17;;;;;;;45.90;27.13;;;;;;;;;;5032028;28;20201;-66
2023/02/11 03:47:47;;;;;;;50.85;28.55;;;;;;;;;;5047434;28;20658;-67
2023/02/11 03:50:17;;;;;;;44.55;27.00;;;;;;;;;;5045050;28;20197;-66
2023/02/11 03:52:47;;;;;;;48.35;25.80;;;;;;;;;;5043425;28;20674;-66
2023/02/11 03:55:17;;;;;;;46.75;24.40;;;;;;;;;;5031846;28;20621;-67
2023/02/11 03:57:46;;;;;;;41.50;25.88;;;;;;;;;;5032276;28;20194;-66
2023/02/11 04:00:14;;;;;;;48.67;26.92;;;;;;;;;;5046792;28;20203;-66
2023/02/11 04:02:42;;;;;;;41.35;23.58;;;;;;;;;;5049401;28;20201;-67
2023/02/11 04:05:15;;;;;;;44.05;25.27;;;;;;;;;;5049412;28;20214;-66
2023/02/11 04:07:45;;;;;;;60.40;27.35;;;;;;;;;;5051676;28;20659;-67
2023/02/11 04:10:13;;;;;;;50.80;30.83;;;;;;;;;;5039921;28;20213;-67
2023/02/11 04:12:41;;;;;;;82.57;42.63;;;;;;;;;;5047235;28;20208;-67
2023/02/11 04:15:10;;;;;;;63.38;36.15;;;;;;;;;;5050524;28;20204;-67
2023/02/11 04:17:38;;;;;;;62.53;33.67;;;;;;;;;;5055949;28;20215;-67
2023/02/11 04:20:07;;;;;;;87.97;47.10;;;;;;;;;;5055433;28;20254;-67
2023/02/11 04:22:35;;;;;;;143.98;73.15;;;;;;;;;;5055663;28;20719;-67
2023/02/11 04:25:05;;;;;;;72.55;39.35;;;;;;;;;;5055681;28;20211;-68
2023/02/11 04:27:33;;;;;;;73.22;43.13;;;;;;;;;;5051925;28;20551;-67
2023/02/11 04:30:01;;;;;;;55.58;34.72;;;;;;;;;;5040124;28;20220;-67
2023/02/11 04:32:30;;;;;;;220.30;91.95;;;;;;;;;;5037658;28;20287;-67
2023/02/11 04:34:58;;;;;;;234.07;99.00;;;;;;;;;;5055786;28;20212;-67
2023/02/11 04:37:26;;;;;;;181.02;73.05;;;;;;;;;;5054748;28;20233;-67
2023/02/11 04:39:54;;;;;;;446.73;202.20;;;;;;;;;;5055732;28;20211;-67
2023/02/11 04:42:24;;;;;;;170.43;85.57;;;;;;;;;;5055747;28;20200;-68
2023/02/11 04:44:52;;;;;;;92.72;49.55;;;;;;;;;;5051729;28;20202;-67
2023/02/11 04:47:20;;;;;;;61.92;40.00;;;;;;;;;;5035406;28;20206;-67
2023/02/11 04:49:48;;;;;;;58.03;38.63;;;;;;;;;;5035673;28;20228;-67
2023/02/11 04:52:16;;;;;;;53.38;29.00;;;;;;;;;;5035983;28;20228;-67
2023/02/11 04:54:45;;;;;;;43.60;26.13;;;;;;;;;;5035559;28;20577;-67
2023/02/11 04:57:13;;;;;;;44.65;26.40;;;;;;;;;;5035921;28;20523;-67
2023/02/11 04:59:42;;;;;;;40.47;23.95;;;;;;;;;;5035492;28;20724;-67
2023/02/11 05:02:11;;;;;;;42.08;24.70;;;;;;;;;;5034600;28;20209;-67
2023/02/11 05:04:39;;;;;;;43.25;25.48;;;;;;;;;;5035799;28;20557;-67
2023/02/11 05:07:07;;;;;;;38.90;23.70;;;;;;;;;;5034720;28;20220;-67
2023/02/11 05:09:35;;;;;;;42.72;25.50;;;;;;;;;;5034849;28;20217;-67
2023/02/11 05:12:03;;;;;;;40.25;24.45;;;;;;;;;;5034379;28;20212;-67
2023/02/11 05:14:32;;;;;;;41.35;24.63;;;;;;;;;;5034794;28;20224;-67
2023/02/11 05:17:01;;;;;;;40.22;24.17;;;;;;;;;;5034644;28;20201;-67
2023/02/11 05:19:30;;;;;;;40.15;23.23;;;;;;;;;;5034370;28;20209;-67
2023/02/11 05:21:59;;;;;;;39.35;23.30;;;;;;;;;;5043100;28;20204;-68
2023/02/11 05:24:27;;;;;;;45.30;26.27;;;;;;;;;;5054202;28;20215;-68
2023/02/11 05:26:55;;;;;;;39.40;24.25;;;;;;;;;;5050441;28;20264;-67
2023/02/11 05:29:23;;;;;;;41.25;23.83;;;;;;;;;;5038925;28;20217;-68
2023/02/11 05:31:51;;;;;;;38.25;22.38;;;;;;;;;;5036052;28;20667;-67
2023/02/11 05:34:21;;;;;;;37.20;21.90;;;;;;;;;;5053955;28;20209;-68
2023/02/11 05:36:49;;;;;;;38.30;21.85;;;;;;;;;;5053851;28;20229;-67
2023/02/11 05:39:17;;;;;;;36.35;21.73;;;;;;;;;;5054384;28;20230;-67
2023/02/11 05:41:45;;;;;;;40.60;21.90;;;;;;;;;;5055545;28;20211;-68
2023/02/11 05:44:13;;;;;;;46.55;23.63;;;;;;;;;;5050592;28;20202;-68
2023/02/11 05:46:41;;;;;;;32.97;21.02;;;;;;;;;;5034353;28;20258;-68
2023/02/11 05:49:10;;;;;;;39.85;24.15;;;;;;;;;;5034177;28;20224;-67
2023/02/11 05:51:39;;;;;;;32.25;22.05;;;;;;;;;;5043604;28;20212;-67
2023/02/11 05:54:08;;;;;;;40.45;22.83;;;;;;;;;;5053975;28;20208;-67
2023/02/11 05:56:36;;;;;;;37.30;22.35;;;;;;;;;;5054374;28;20204;-68
2023/02/11 05:59:04;;;;;;;45.25;23.90;;;;;;;;;;5054293;28;20585;-68
2023/02/11 06:01:32;;;;;;;37.45;20.75;;;;;;;;;;5053421;28;20215;-68
2023/02/11 06:04:00;;;;;;;44.00;22.05;;;;;;;;;;5052642;28;20200;-66
2023/02/11 06:06:28;;;;;;;39.63;23.52;;;;;;;;;;5053825;28;20226;-67
2023/02/11 06:08:58;;;;;;;39.38;22.30;;;;;;;;;;5053221;28;20201;-67
2023/02/11 06:11:26;;;;;;;35.83;22.40;;;;;;;;;;5053934;28;20209;-67
2023/02/11 06:13:54;;;;;;;46.53;23.80;;;;;;;;;;5046513;28;20660;-67
2023/02/11 06:16:22;;;;;;;43.75;25.35;;;;;;;;;;5047632;28;20204;-67
2023/02/11 06:18:51;;;;;;;41.25;24.70;;;;;;;;;;5052921;28;20205;-67
2023/02/11 06:21:19;;;;;;;43.50;25.40;;;;;;;;;;5033938;28;20201;-67
2023/02/11 06:23:48;;;;;;;45.10;26.83;;;;;;;;;;5032825;28;20599;-69
2023/02/11 06:26:18;;;;;;;44.70;24.98;;;;;;;;;;5033774;28;20243;-67
2023/02/11 06:28:47;;;;;;;46.70;25.10;;;;;;;;;;5032908;28;20189;-66
2023/02/11 06:31:15;;;;;;;42.30;26.30;;;;;;;;;;5036119;28;20217;-66
2023/02/11 06:33:44;;;;;;;40.30;25.17;;;;;;;;;;5052884;28;20204;-66
2023/02/11 06:36:14;;;;;;;50.70;25.52;;;;;;;;;;5049604;28;20228;-66
2023/02/11 06:38:42;;;;;;;43.83;25.88;;;;;;;;;;5032908;28;20546;-66
2023/02/11 06:41:11;;;;;;;46.17;25.27;;;;;;;;;;5041438;28;20197;-67
2023/02/11 06:43:41;;;;;;;49.08;25.30;;;;;;;;;;5053697;28;20265;-66
2023/02/11 06:46:09;;;;;;;46.38;26.98;;;;;;;;;;5047968;28;20582;-66
2023/02/11 06:48:38;;;;;;;46.00;24.95;;;;;;;;;;5045630;28;20625;-66
2023/02/11 06:51:07;;;;;;;44.15;25.23;;;;;;;;;;5040716;28;20219;-67
2023/02/11 06:53:35;;;;;;;41.95;23.17;;;;;;;;;;5041554;28;20210;-66
2023/02/11 06:56:04;;;;;;;46.22;25.58;;;;;;;;;;5043278;28;20223;-66
2023/02/11 06:58:33;;;;;;;41.95;23.35;;;;;;;;;;5042490;28;20205;-67
2023/02/11 07:01:05;;;;;;;42.42;24.08;;;;;;;;;;5040866;28;20251;-66
2023/02/11 07:03:35;;;;;;;43.00;24.70;;;;;;;;;;5039914;28;20665;-66
2023/02/11 07:06:04;;;;;;;43.40;24.45;;;;;;;;;;5042255;28;20565;-66
2023/02/11 07:08:33;;;;;;;43.60;25.55;;;;;;;;;;5041536;28;20201;-66
2023/02/11 07:11:01;;;;;;;38.28;22.48;;;;;;;;;;5042665;28;20217;-67
2023/02/11 07:13:30;;;;;;;41.30;24.27;;;;;;;;;;5041912;28;20200;-66
2023/02/11 07:15:58;;;;;;;41.17;23.25;;;;;;;;;;5041360;28;20207;-67
2023/02/11 07:18:27;;;;;;;41.97;22.25;;;;;;;;;;5040186;28;20200;-66
2023/02/11 07:20:55;;;;;;;35.70;22.35;;;;;;;;;;5041948;28;20199;-66
2023/02/11 07:23:23;;;;;;;33.38;21.75;;;;;;;;;;5041879;28;20221;-66
2023/02/11 07:25:52;;;;;;;36.85;20.80;;;;;;;;;;5040548;28;20202;-67
2023/02/11 07:28:20;;;;;;;37.38;21.88;;;;;;;;;;5042547;28;20608;-67
2023/02/11 07:30:48;;;;;;;35.00;21.48;;;;;;;;;;5046754;28;20675;-67
2023/02/11 07:33:16;;;;;;;33.97;20.77;;;;;;;;;;5056782;28;20196;-69
2023/02/11 07:35:46;;;;;;;33.42;21.02;;;;;;;;;;5055405;28;20211;-68
2023/02/11 07:38:14;;;;;;;34.72;21.45;;;;;;;;;;5072450;28;20204;-67
2023/02/11 07:40:42;;;;;;;34.35;21.85;;;;;;;;;;5073396;28;20203;-66
2023/02/11 07:43:10;;;;;;;34.17;20.98;;;;;;;;;;5070471;28;20207;-65
2023/02/11 07:45:39;;;;;;;29.98;20.05;;;;;;;;;;5059212;28;20212;-66
2023/02/11 07:48:07;;;;;;;36.53;22.50;;;;;;;;;;5071028;28;20204;-66
2023/02/11 07:50:35;;;;;;;36.42;21.45;;;;;;;;;;5076142;28;20226;-66
2023/02/11 07:53:05;;;;;;;29.88;18.80;;;;;;;;;;5048991;28;20215;-66
2023/02/11 07:55:33;;;;;;;38.92;20.67;;;;;;;;;;5058829;28;20207;-66
2023/02/11 07:58:02;;;;;;;36.60;20.38;;;;;;;;;;5054811;28;20306;-66
2023/02/11 08:00:30;;;;;;;33.47;21.20;;;;;;;;;;5039019;28;20682;-66
2023/02/11 08:02:58;;;;;;;30.35;19.42;;;;;;;;;;5048437;28;20208;-66
2023/02/11 08:05:27;;;;;;;33.00;20.45;;;;;;;;;;5048624;28;20200;-67
2023/02/11 08:07:55;;;;;;;37.63;21.42;;;;;;;;;;5053088;28;20208;-67
2023/02/11 08:10:24;;;;;;;31.17;21.52;;;;;;;;;;5046998;28;20220;-67
2023/02/11 08:12:54;;;;;;;32.95;19.38;;;;;;;;;;5052993;28;20204;-67
2023/02/11 08:15:22;;;;;;;32.60;21.38;;;;;;;;;;5046841;28;20196;-67
2023/02/11 08:17:50;;;;;;;33.15;17.25;;;;;;;;;;5042233;28;20206;-67
2023/02/11 08:20:18;;;;;;;30.42;19.25;;;;;;;;;;5054302;28;20201;-67
2023/02/11 08:22:46;;;;;;;36.58;20.75;;;;;;;;;;5046707;28;20217;-67
2023/02/11 08:25:14;;;;;;;30.85;20.35;;;;;;;;;;5036375;28;20208;-67
2023/02/11 08:27:44;;;;;;;31.13;19.67;;;;;;;;;;5046565;28;20585;-67
2023/02/11 08:30:12;;;;;;;29.80;19.10;;;;;;;;;;5036723;28;20632;-67
2023/02/11 08:32:41;;;;;;;29.10;18.83;;;;;;;;;;5047692;28;20205;-67
2023/02/11 08:35:11;;;;;;;29.60;18.02;;;;;;;;;;5047444;28;20201;-67
2023/02/11 08:37:39;;;;;;;31.05;19.73;;;;;;;;;;5045876;28;20560;-67
2023/02/11 08:40:07;;;;;;;27.17;17.67;;;;;;;;;;5041654;28;20202;-67
2023/02/11 08:42:36;;;;;;;30.95;18.67;;;;;;;;;;5035777;28;20562;-67
2023/02/11 08:45:06;;;;;;;34.35;18.73;;;;;;;;;;5036286;28;20594;-67
2023/02/11 08:47:34;;;;;;;29.92;19.38;;;;;;;;;;5038921;28;20202;-67
2023/02/11 08:50:02;;;;;;;28.45;18.10;;;;;;;;;;5035065;28;20201;-67
2023/02/11 08:52:30;;;;;;;26.40;18.45;;;;;;;;;;5054738;28;20211;-67
2023/02/11 08:54:58;;;;;;;28.98;17.50;;;;;;;;;;5041241;28;20625;-67
2023/02/11 08:57:27;;;;;;;28.17;17.35;;;;;;;;;;5035441;28;20205;-67
2023/02/11 08:59:55;;;;;;;30.10;19.25;;;;;;;;;;5045031;28;20227;-67
2023/02/11 09:02:24;;;;;;;27.33;16.65;;;;;;;;;;5034519;28;20570;-67
2023/02/11 09:04:52;;;;;;;25.30;14.60;;;;;;;;;;5047252;28;20205;-68
2023/02/11 09:07:21;;;;;;;31.30;15.88;;;;;;;;;;5054391;28;20197;-68
2023/02/11 09:09:49;;;;;;;25.85;15.75;;;;;;;;;;5056305;28;20209;-69
2023/02/11 09:12:17;;;;;;;27.92;16.70;;;;;;;;;;5048712;28;20606;-68
2023/02/11 09:14:45;;;;;;;25.30;15.98;;;;;;;;;;5040321;28;20208;-68
2023/02/11 09:17:13;;;;;;;24.42;16.30;;;;;;;;;;5061779;28;20207;-68
2023/02/11 09:19:43;;;;;;;25.42;14.68;;;;;;;;;;5074358;28;20203;-69
2023/02/11 09:22:11;;;;;;;22.48;15.00;;;;;;;;;;5067954;28;20231;-68
2023/02/11 09:24:39;;;;;;;20.80;14.32;;;;;;;;;;5073533;28;20219;-69
2023/02/11 09:27:07;;;;;;;21.67;14.57;;;;;;;;;;5067345;28;20215;-69
2023/02/11 09:29:35;;;;;;;22.92;14.90;;;;;;;;;;5052832;28;20206;-69
2023/02/11 09:32:04;;;;;;;23.40;14.23;;;;;;;;;;5073806;28;20538;-69
2023/02/11 09:34:32;;;;;;;21.73;14.00;;;;;;;;;;5066449;28;20208;-69
2023/02/11 09:37:02;;;;;;;23.42;13.70;;;;;;;;;;5058722;28;20688;-69
2023/02/11 09:39:30;;;;;;;22.15;14.63;;;;;;;;;;5049070;28;20238;-69
2023/02/11 09:42:09;;;;;;;27.90;19.60;;;;;;;;;;5045007;28;20201;-69
2023/02/11 09:44:38;;;;;;;20.77;14.50;;;;;;;;;;5069049;28;20550;-69
2023/02/11 09:47:08;;;;;;;21.30;15.32;;;;;;;;;;5049731;28;20203;-69
2023/02/11 09:49:40;;;;;;;20.10;12.63;;;;;;;;;;5043320;28;20204;-70
2023/02/11 09:52:14;;;;;;;20.75;13.27;;;;;;;;;;5044138;28;20235;-69
2023/02/11 09:54:50;;;;;;;17.00;12.73;;;;;;;;;;5045647;28;20192;-69
2023/02/11 09:57:18;;;;;;;20.27;14.68;;;;;;;;;;5044214;28;20207;-69
2023/02/11 09:59:48;;;;;;;22.90;14.13;;;;;;;;;;5042980;28;20203;-69
2023/02/11 10:02:21;;;;;;;19.98;13.88;;;;;;;;;;5040294;28;20201;-70
2023/02/11 10:04:59;;;;;;;17.67;11.88;;;;;;;;;;5045907;28;20204;-69
2023/02/11 10:07:32;;;;;;;18.88;13.45;;;;;;;;;;5042704;28;20547;-69
2023/02/11 10:10:08;;;;;;;22.30;14.43;;;;;;;;;;5039357;28;20258;-69
2023/02/11 10:12:47;;;;;;;17.83;12.77;;;;;;;;;;5051586;28;20214;-69
2023/02/11 10:15:19;;;;;;;18.33;14.40;;;;;;;;;;5048009;28;20493;-69
2023/02/11 10:17:56;;;;;;;22.83;15.68;;;;;;;;;;5045106;28;20189;-69
2023/02/11 10:20:31;;;;;;;25.83;16.10;;;;;;;;;;5046300;28;20667;-69
2023/02/11 10:23:03;;;;;;;24.35;17.95;;;;;;;;;;5033193;28;20216;-69
2023/02/11 10:25:37;;;;;;;23.08;16.60;;;;;;;;;;5046393;28;20193;-69
2023/02/11 10:28:12;;;;;;;26.48;17.75;;;;;;;;;;5049553;28;20194;-69
2023/02/11 10:30:43;;;;;;;24.20;17.67;;;;;;;;;;5040745;28;20637;-69
2023/02/11 10:33:14;;;;;;;23.55;16.60;;;;;;;;;;5042469;28;20219;-69
2023/02/11 10:35:42;;;;;;;26.33;17.30;;;;;;;;;;5044479;28;20636;-69
2023/02/11 10:38:12;;;;;;;23.58;17.73;;;;;;;;;;5042444;28;20271;-69
2023/02/11 10:40:41;;;;;;;23.35;17.35;;;;;;;;;;5041061;28;20197;-69
2023/02/11 10:43:12;;;;;;;27.35;17.20;;;;;;;;;;5040936;28;20197;-69
2023/02/11 10:45:43;;;;;;;27.83;17.33;;;;;;;;;;5038971;28;20193;-69
2023/02/11 10:48:26;;;;;;;26.50;18.38;;;;;;;;;;5043562;28;20212;-71
2023/02/11 10:51:07;;;;;;;26.02;16.42;;;;;;;;;;5041380;28;20211;-69
2023/02/11 10:53:37;;;;;;;25.13;18.25;;;;;;;;;;5049720;28;20654;-68
2023/02/11 10:56:06;;;;;;;25.08;16.85;;;;;;;;;;5044343;28;20208;-67
2023/02/11 10:58:38;;;;;;;24.42;16.98;;;;;;;;;;5033636;28;20690;-68
2023/02/11 11:01:07;;;;;;;24.83;17.90;;;;;;;;;;5031777;28;20192;-68
2023/02/11 11:03:38;;;;;;;22.80;16.13;;;;;;;;;;5030743;28;20205;-68
2023/02/11 11:06:08;;;;;;;22.00;17.52;;;;;;;;;;5034852;28;20191;-68
2023/02/11 11:08:42;;;;;;;21.50;17.15;;;;;;;;;;5052818;28;20659;-69
2023/02/11 11:11:11;;;;;;;23.98;16.92;;;;;;;;;;5051992;28;20411;-68
2023/02/11 11:13:41;;;;;;;21.30;15.60;;;;;;;;;;5034051;28;20205;-69
2023/02/11 11:16:20;;;;;;;22.30;15.60;;;;;;;;;;5037265;28;20644;-69
2023/02/11 11:18:49;;;;;;;23.90;15.88;;;;;;;;;;5032744;28;20212;-70
2023/02/11 11:21:19;;;;;;;25.65;17.27;;;;;;;;;;5044725;28;20258;-68
2023/02/11 11:23:50;;;;;;;24.50;17.65;;;;;;;;;;5051733;28;20228;-69
2023/02/11 11:26:19;;;;;;;25.58;18.10;;;;;;;;;;5049764;28;20189;-69
2023/02/11 11:28:55;;;;;;;25.85;18.23;;;;;;;;;;5051160;28;20200;-68
2023/02/11 11:31:25;;;;;;;28.20;19.08;;;;;;;;;;5051850;28;20203;-68
2023/02/11 11:33:55;;;;;;;25.50;18.30;;;;;;;;;;5046317;28;20197;-68
2023/02/11 11:36:24;;;;;;;27.40;18.35;;;;;;;;;;5042807;28;20229;-69
2023/02/11 11:38:56;;;;;;;24.77;18.88;;;;;;;;;;5036566;28;20201;-69
2023/02/11 11:41:26;;;;;;;22.83;18.95;;;;;;;;;;5051515;28;20422;-68
2023/02/11 11:43:55;;;;;;;23.02;17.23;;;;;;;;;;5038965;28;20197;-68
2023/02/11 11:46:24;;;;;;;26.60;19.65;;;;;;;;;;5031179;28;20735;-69
2023/02/11 11:48:53;;;;;;;19.05;16.98;;;;;;;;;;5032312;28;20675;-67
2023/02/11 11:51:23;;;;;;;22.88;19.23;;;;;;;;;;5040896;28;20196;-68
2023/02/11 11:53:56;;;;;;;22.40;17.73;;;;;;;;;;5048738;28;20212;-67
2023/02/11 11:56:27;;;;;;;22.70;18.20;;;;;;;;;;5052106;28;20199;-67
2023/02/11 11:58:55;;;;;;;20.00;17.85;;;;;;;;;;5052559;28;20192;-67
2023/02/11 12:01:30;;;;;;;25.40;18.33;;;;;;;;;;5050586;28;20219;-67
2023/02/11 12:04:06;;;;;;;23.02;19.17;;;;;;;;;;5046532;28;20546;-67
2023/02/11 12:06:40;;;;;;;19.98;17.52;;;;;;;;;;5044130;28;20211;-66
2023/02/11 12:09:16;;;;;;;20.40;17.52;;;;;;;;;;5032319;28;20190;-67
2023/02/11 12:12:06;;;;;;;23.08;19.15;;;;;;;;;;5032496;28;20205;-66
2023/02/11 12:14:38;;;;;;;23.65;18.85;;;;;;;;;;5031837;28;20214;-67
2023/02/11 12:17:12;;;;;;;20.52;17.30;;;;;;;;;;5044293;28;20645;-67
2023/02/11 12:19:55;;;;;;;22.95;18.85;;;;;;;;;;5032435;28;20196;-68
2023/02/11 12:22:31;;;;;;;24.53;20.90;;;;;;;;;;5037656;28;20217;-68
2023/02/11 12:25:27;;;;;;;23.00;19.00;;;;;;;;;;5047318;28;20614;-68
2023/02/11 12:28:00;;;;;;;22.27;19.20;;;;;;;;;;5032840;28;20569;-69
2023/02/11 12:30:42;;;;;;;26.67;18.97;;;;;;;;;;5033085;28;20569;-68
2023/02/11 12:33:16;;;;;;;24.30;21.70;;;;;;;;;;5032739;28;21028;-68
2023/02/11 12:35:50;;;;;;;22.53;19.80;;;;;;;;;;5034934;28;20678;-68
2023/02/11 12:38:26;;;;;;;23.00;19.50;;;;;;;;;;5036485;28;20595;-68
2023/02/11 12:41:02;;;;;;;22.20;20.00;;;;;;;;;;5036193;28;20562;-68
2023/02/11 12:43:34;;;;;;;21.10;19.03;;;;;;;;;;5035863;28;20608;-68
2023/02/11 12:46:20;;;;;;;20.87;18.77;;;;;;;;;;5036757;28;20631;-69
2023/02/11 12:49:11;;;;;;;21.20;18.90;;;;;;;;;;5038630;28;20689;-69
2023/02/11 12:51:50;;;;;;;23.50;20.97;;;;;;;;;;5040421;28;20649;-68
2023/02/11 12:54:25;;;;;;;22.47;20.20;;;;;;;;;;5038115;28;20594;-69
2023/02/11 12:57:01;;;;;;;25.93;21.00;;;;;;;;;;5037905;28;20579;-69
2023/02/11 12:59:34;;;;;;;23.33;20.40;;;;;;;;;;5038732;28;20661;-69
2023/02/11 13:02:06;;;;;;;22.53;20.20;;;;;;;;;;5036825;28;20641;-68
2023/02/11 13:04:37;;;;;;;21.70;19.50;;;;;;;;;;5035521;28;20565;-68
2023/02/11 13:07:10;;;;;;;21.80;19.67;;;;;;;;;;5038456;28;21030;-68
2023/02/11 13:09:42;;;;;;;23.70;21.20;;;;;;;;;;5037411;28;20583;-68
2023/02/11 13:15:10;;;;;;;23.87;21.50;;;;;;;;;;5023910;28;21226;-68
2023/02/11 13:17:41;;;;;;;23.87;21.33;;;;;;;;;;5058586;28;20673;-68
2023/02/11 13:20:14;;;;;;;22.97;20.67;;;;;;;;;;5046259;28;20586;-69
2023/02/11 13:22:45;;;;;;;21.87;19.67;;;;;;;;;;5041134;28;20674;-68
2023/02/11 13:25:20;;;;;;;21.83;19.77;;;;;;;;;;5043279;28;20667;-68
2023/02/11 13:27:57;;;;;;;23.80;21.47;;;;;;;;;;5046926;28;20607;-69
2023/02/11 13:30:31;;;;;;;22.27;19.97;;;;;;;;;;5041763;28;20884;-69
2023/02/11 13:33:05;;;;;;;21.73;19.63;;;;;;;;;;5044034;28;21175;-68
2023/02/11 13:35:34;;;;;;;22.17;19.80;;;;;;;;;;5047098;28;20591;-69
2023/02/11 13:38:03;;;;;;;23.17;20.77;;;;;;;;;;5046608;28;20680;-68
2023/02/11 13:40:33;;;;;;;20.07;18.10;;;;;;;;;;5047146;28;21012;-69
2023/02/11 13:43:04;;;;;;;20.93;18.83;;;;;;;;;;5043731;28;20633;-72
2023/02/11 13:45:34;;;;;;;22.53;20.33;;;;;;;;;;5046628;28;21141;-69
2023/02/11 13:48:05;;;;;;;22.07;19.80;;;;;;;;;;5046525;28;20589;-68
2023/02/11 13:50:37;;;;;;;22.47;20.17;;;;;;;;;;5046280;28;21107;-69
2023/02/11 13:53:07;;;;;;;23.60;19.57;;;;;;;;;;5045553;28;20603;-69
2023/02/11 13:55:37;;;;;;;22.03;19.87;;;;;;;;;;5048450;28;20616;-69
2023/02/11 13:58:20;;;;;;;20.87;18.83;;;;;;;;;;5044192;28;21023;-69
2023/02/11 14:00:51;;;;;;;23.70;18.33;;;;;;;;;;5049179;28;20986;-69
2023/02/11 14:09:10;;;;;;;19.40;17.40;;;;;;;;;;5050895;28;20635;-69
2023/02/11 14:11:46;;;;;;;21.10;17.23;;;;;;;;;;5049071;28;21184;-69
2023/02/11 14:14:18;;;;;;;20.80;17.50;;;;;;;;;;5056868;28;20669;-67
2023/02/11 14:17:05;;;;;;;20.40;17.23;;;;;;;;;;5057183;28;20671;-67
2023/02/11 14:19:36;;;;;;;18.87;15.43;;;;;;;;;;5055815;28;21050;-68
2023/02/11 14:22:04;;;;;;;15.70;14.07;;;;;;;;;;5054407;28;20610;-68
2023/02/11 14:24:47;;;;;;;14.90;13.40;;;;;;;;;;5048018;28;20622;-68
2023/02/11 14:27:33;;;;;;;16.33;13.83;;;;;;;;;;5038707;28;20986;-69
2023/02/11 14:30:28;;;;;;;15.40;13.98;;;;;;;;;;5045102;28;21204;-68
2023/02/11 14:33:04;;;;;;;15.40;13.63;;;;;;;;;;5043240;28;20246;-68
2023/02/11 14:35:36;;;;;;;14.87;13.40;;;;;;;;;;5041891;28;20731;-68
2023/02/11 14:38:08;;;;;;;14.87;12.67;;;;;;;;;;5043275;28;20681;-68
2023/02/11 14:40:42;;;;;;;15.20;13.60;;;;;;;;;;5035208;28;21269;-68
2023/02/11 14:43:13;;;;;;;15.40;13.67;;;;;;;;;;5035161;28;20635;-68
2023/02/11 14:45:43;;;;;;;17.70;13.43;;;;;;;;;;5034473;28;20767;-68
2023/02/11 14:48:15;;;;;;;16.13;13.27;;;;;;;;;;5034982;28;20637;-68
2023/02/11 14:50:46;;;;;;;14.87;11.77;;;;;;;;;;5036993;28;20665;-69